Time;durP1;ratioP1;P1;durP2;ratioP2;P2;SDS_P1;SDS_P2;PMS_P1;PMS_P2;Temp;Humidity;BMP_temperature;BMP_pressure;BME280_temperature;BME280_humidity;BME280_pressure;Samples;Min_cycle;Max_cycle;Signal;HPM_P1;HPM_P2
2023/07/20 19:49:11;;;;;;;4.23;2.77;;;17.10;99.90;;;;;;2731606;23;20262;-75
2023/07/20 19:51:38;;;;;;;4.53;2.90;;;17.10;99.90;;;;;;4894425;29;20211;-75
2023/07/20 19:54:05;;;;;;;3.77;2.87;;;17.10;99.90;;;;;;4891145;29;20221;-76
2023/07/20 19:56:34;;;;;;;3.83;2.87;;;17.00;99.90;;;;;;4877003;29;20311;-75
2023/07/20 19:59:00;;;;;;;4.30;3.37;;;17.00;99.90;;;;;;4875356;29;20342;-74
2023/07/20 20:01:27;;;;;;;4.77;3.60;;;17.10;99.90;;;;;;4876861;29;20231;-76
2023/07/20 20:03:55;;;;;;;3.30;2.70;;;17.00;99.90;;;;;;4878914;29;20248;-76
2023/07/20 20:06:22;;;;;;;3.23;2.90;;;16.90;99.90;;;;;;4876074;29;20572;-74
2023/07/20 20:08:49;;;;;;;3.90;3.43;;;16.90;99.90;;;;;;4871121;29;20211;-76
2023/07/20 20:11:15;;;;;;;5.37;3.90;;;16.80;99.90;;;;;;4877299;29;20212;-76
2023/07/20 20:13:42;;;;;;;4.50;3.63;;;16.70;99.90;;;;;;4878958;29;20214;-74
2023/07/20 20:16:09;;;;;;;4.37;3.73;;;16.70;99.90;;;;;;4875271;29;20239;-76
2023/07/20 20:18:36;;;;;;;4.70;3.37;;;16.80;99.90;;;;;;4863010;29;20231;-71
2023/07/20 20:21:04;;;;;;;4.77;3.27;;;16.70;99.90;;;;;;4875153;29;20563;-75
2023/07/20 20:23:31;;;;;;;3.80;2.90;;;16.60;99.90;;;;;;4863431;29;20307;-75
2023/07/20 20:25:58;;;;;;;4.53;2.90;;;16.60;99.90;;;;;;4875128;29;20244;-75
2023/07/20 20:28:24;;;;;;;4.20;3.33;;;16.50;99.90;;;;;;4863018;29;20666;-75
2023/07/20 20:30:51;;;;;;;3.93;3.10;;;16.50;99.90;;;;;;4877970;29;20698;-76
2023/07/20 20:33:18;;;;;;;4.40;3.57;;;16.50;99.90;;;;;;4878521;29;20238;-74
2023/07/20 20:35:45;;;;;;;4.23;2.93;;;16.50;99.90;;;;;;4877632;29;20265;-75
2023/07/20 20:38:11;;;;;;;4.10;3.40;;;16.40;99.90;;;;;;4877911;29;20249;-75
2023/07/20 20:40:44;;;;;;;3.50;3.00;;;16.30;99.90;;;;;;4878607;29;20620;-76
2023/07/20 20:43:11;;;;;;;4.13;3.20;;;16.30;99.90;;;;;;4877898;29;20219;-75
2023/07/20 20:45:38;;;;;;;3.93;3.27;;;16.40;99.90;;;;;;4878510;29;20214;-74
2023/07/20 20:48:07;;;;;;;4.90;3.60;;;16.40;99.90;;;;;;4877676;29;20302;-76
2023/07/20 20:50:36;;;;;;;4.13;3.13;;;16.40;99.90;;;;;;4878368;29;20270;-75
2023/07/20 20:53:03;;;;;;;4.10;3.30;;;16.40;99.90;;;;;;4878903;29;20211;-74
2023/07/20 20:55:30;;;;;;;3.07;2.73;;;16.30;99.90;;;;;;4879652;29;20263;-73
2023/07/20 20:57:57;;;;;;;4.17;3.53;;;16.20;99.90;;;;;;4878821;29;20242;-73
2023/07/20 21:00:24;;;;;;;4.27;2.97;;;16.20;99.90;;;;;;4879605;29;20211;-73
2023/07/20 21:02:51;;;;;;;4.20;3.10;;;16.20;99.90;;;;;;4878687;29;20567;-72
2023/07/20 21:05:18;;;;;;;3.40;2.93;;;16.10;99.90;;;;;;4879357;29;20212;-73
2023/07/20 21:07:46;;;;;;;4.67;3.30;;;16.10;99.90;;;;;;4878274;29;20232;-77
2023/07/20 21:10:13;;;;;;;3.63;2.70;;;16.10;99.90;;;;;;4878951;29;20307;-75
2023/07/20 21:12:40;;;;;;;4.27;3.43;;;16.00;99.90;;;;;;4878466;29;20207;-74
2023/07/20 21:15:08;;;;;;;4.27;3.47;;;16.00;99.90;;;;;;4879159;29;20710;-72
2023/07/20 21:17:35;;;;;;;6.17;2.97;;;16.10;99.90;;;;;;4878057;29;20243;-73
2023/07/20 21:20:03;;;;;;;5.87;3.40;;;16.10;99.90;;;;;;4878799;29;20211;-76
2023/07/20 21:22:30;;;;;;;4.03;3.37;;;16.10;99.90;;;;;;4877953;29;20566;-73
2023/07/20 21:24:58;;;;;;;4.53;3.20;;;16.10;99.90;;;;;;4878874;29;20221;-73
2023/07/20 21:27:25;;;;;;;5.07;3.40;;;16.10;99.90;;;;;;4878795;29;20233;-73
2023/07/20 21:29:52;;;;;;;4.13;3.00;;;16.00;99.90;;;;;;4878437;29;20742;-73
2023/07/20 21:32:18;;;;;;;5.53;3.20;;;16.10;99.90;;;;;;4878418;29;20543;-76
2023/07/20 21:34:45;;;;;;;4.17;3.17;;;16.00;99.90;;;;;;4878282;29;20238;-73
2023/07/20 21:37:12;;;;;;;3.33;2.90;;;16.00;99.90;;;;;;4878128;29;20231;-74
2023/07/20 21:39:39;;;;;;;5.43;3.50;;;16.10;99.90;;;;;;4877644;29;20694;-73
2023/07/20 21:42:08;;;;;;;3.67;3.00;;;16.10;99.90;;;;;;4878286;29;20215;-73
2023/07/20 21:44:35;;;;;;;3.73;3.27;;;16.00;99.90;;;;;;4878302;29;20219;-73
2023/07/20 21:47:01;;;;;;;3.93;3.17;;;15.90;99.90;;;;;;4878490;29;20245;-76
2023/07/20 21:49:28;;;;;;;6.20;3.20;;;15.90;99.90;;;;;;4877866;29;20219;-73
2023/07/20 21:51:55;;;;;;;4.27;2.70;;;15.90;99.90;;;;;;4878210;29;20651;-73
2023/07/20 21:54:23;;;;;;;4.30;3.20;;;16.00;99.90;;;;;;4878564;29;20574;-72
